Time;durP1;ratioP1;P1;durP2;ratioP2;P2;SDS_P1;SDS_P2;PMS_P1;PMS_P2;Temp;Humidity;BMP_temperature;BMP_pressure;BME280_temperature;BME280_humidity;BME280_pressure;Samples;Min_cycle;Max_cycle;Signal;HPM_P1;HPM_P2
2022/12/17 13:08:02;;;;;;;31.20;19.27;;;;;;;-2.33;70.25;101292.69;10327762;28;20056;-56
2022/12/17 13:13:54;;;;;;;27.83;19.40;;;;;;;-2.35;70.64;101286.63;10314037;28;20048;-55
2022/12/17 13:19:03;;;;;;;29.02;19.30;;;;;;;-2.38;71.29;101277.97;10326619;28;20056;-56
2022/12/17 13:24:21;;;;;;;34.67;20.85;;;;;;;-2.47;71.71;101272.84;10316503;28;20155;-55
2022/12/17 13:29:31;;;;;;;35.78;21.02;;;;;;;-2.53;71.88;101274.63;10348676;28;20048;-55
2022/12/17 13:35:03;;;;;;;33.80;21.88;;;;;;;-2.66;72.64;101280.84;10319696;28;20562;-56
2022/12/17 13:40:43;;;;;;;38.17;23.92;;;;;;;-2.52;72.90;101276.38;10293843;28;20053;-54
2022/12/17 13:45:45;;;;;;;35.90;22.05;;;;;;;-2.61;72.52;101292.09;10329990;28;20076;-54
2022/12/17 13:51:00;;;;;;;32.33;23.45;;;;;;;-2.51;72.61;101303.28;10331581;28;20058;-56
2022/12/17 13:56:02;;;;;;;36.60;23.27;;;;;;;-2.40;71.48;101295.34;10331243;28;20049;-54
2022/12/17 14:01:04;;;;;;;36.20;23.08;;;;;;;-2.36;72.29;101294.47;10331315;28;20510;-55
2022/12/17 14:06:10;;;;;;;;;;;;;;;-2.41;71.73;101288.44;10295349;28;20046;-55
2022/12/17 14:16:31;;;;;;;32.30;22.63;;;;;;;-2.46;72.23;101287.59;10340981;28;20049;-55
2022/12/17 14:21:36;;;;;;;35.95;22.38;;;;;;;-2.65;72.64;101279.97;10325713;28;20161;-55
2022/12/17 14:26:52;;;;;;;38.63;25.65;;;;;;;-2.70;72.99;101297.41;10313412;28;20439;-56
2022/12/17 14:32:02;;;;;;;31.98;20.63;;;;;;;-2.73;72.51;101300.00;10298686;28;20295;-55
2022/12/17 14:37:04;;;;;;;33.25;21.83;;;;;;;-2.97;72.91;101294.16;10331667;28;20120;-55
2022/12/17 14:42:25;;;;;;;35.85;24.33;;;;;;;-3.03;73.56;101307.22;10342131;28;20042;-54
2022/12/17 14:47:32;;;;;;;32.35;23.13;;;;;;;-3.04;73.74;101302.88;10318794;28;20117;-58
2022/12/17 14:52:47;;;;;;;33.10;21.40;;;;;;;-3.11;74.10;101316.81;10331908;28;20045;-54
2022/12/17 14:57:50;;;;;;;31.90;21.70;;;;;;;-3.14;74.07;101301.22;10313820;28;20049;-54
2022/12/17 15:02:53;;;;;;;34.88;24.45;;;;;;;-3.18;73.98;101313.41;10327479;28;21421;-54
2022/12/17 15:07:55;;;;;;;34.95;24.02;;;;;;;-3.21;74.03;101322.09;10338352;28;20080;-57
2022/12/17 15:12:58;;;;;;;33.67;22.15;;;;;;;-3.11;72.64;101319.41;10347570;28;20057;-54
2022/12/17 15:18:00;;;;;;;36.95;21.90;;;;;;;-3.32;73.40;101323.03;10339304;28;20057;-56
2022/12/17 15:23:02;;;;;;;33.70;21.35;;;;;;;-3.43;73.79;101325.69;10350449;28;20050;-63
2022/12/17 15:28:04;;;;;;;31.38;20.92;;;;;;;-3.38;73.40;101329.13;10328314;28;20065;-54
2022/12/17 15:33:07;;;;;;;33.75;21.20;;;;;;;-3.26;73.65;101336.00;10357211;28;20803;-54
2022/12/17 15:38:10;;;;;;;27.95;19.80;;;;;;;-3.04;72.61;101344.56;10353687;28;20048;-54
2022/12/17 15:43:12;;;;;;;33.50;22.17;;;;;;;-3.26;72.78;101338.63;10336158;28;20054;-56
2022/12/17 15:48:20;;;;;;;30.17;19.80;;;;;;;-3.27;72.04;101348.19;10308248;28;20057;-53
2022/12/17 15:53:22;;;;;;;32.50;20.98;;;;;;;-3.50;73.03;101347.44;10323035;28;20046;-55
2022/12/17 15:58:26;;;;;;;35.50;21.67;;;;;;;-3.66;73.82;101349.22;10329092;28;20124;-54
2022/12/17 16:03:27;;;;;;;34.00;20.65;;;;;;;-3.62;74.02;101340.53;10340281;28;20048;-59
2022/12/17 16:08:29;;;;;;;39.28;26.30;;;;;;;-3.56;73.88;101351.81;10350842;28;20722;-57
2022/12/17 16:13:30;;;;;;;43.70;28.55;;;;;;;-3.63;74.20;101360.50;10348442;28;20085;-54
2022/12/17 16:18:32;;;;;;;43.95;28.98;;;;;;;-3.80;74.76;101370.09;10322623;28;20126;-54
2022/12/17 16:23:35;;;;;;;39.45;28.23;;;;;;;-3.80;74.69;101368.38;10305176;28;20046;-54
2022/12/17 16:28:38;;;;;;;34.83;22.45;;;;;;;-3.80;74.92;101362.28;10334011;28;20236;-57
2022/12/17 16:33:42;;;;;;;36.83;22.55;;;;;;;-3.80;75.01;101372.69;10332873;28;20042;-55
2022/12/17 16:38:46;;;;;;;37.78;22.60;;;;;;;-3.63;74.35;101365.72;10339751;28;20097;-57
2022/12/17 16:43:48;;;;;;;37.07;22.77;;;;;;;-3.69;74.09;101385.66;10318525;28;20046;-54
2022/12/17 16:48:51;;;;;;;37.65;25.05;;;;;;;-3.76;74.76;101379.63;10339360;28;20090;-54
2022/12/17 16:53:52;;;;;;;42.70;28.38;;;;;;;-3.71;74.99;101387.44;10328679;28;20058;-54
2022/12/17 16:58:55;;;;;;;36.17;25.45;;;;;;;-3.73;74.42;101384.84;10333820;28;20781;-54
2022/12/17 17:03:57;;;;;;;35.63;21.88;;;;;;;-3.55;74.79;101395.16;10324130;28;20057;-54
2022/12/17 17:09:08;;;;;;;37.45;24.58;;;;;;;-3.46;74.12;101399.47;10329086;28;20204;-53
2022/12/17 17:14:10;;;;;;;35.75;22.17;;;;;;;-3.33;75.76;101402.91;10344894;28;20078;-54
2022/12/17 17:19:11;;;;;;;35.65;23.13;;;;;;;-3.17;72.83;101405.41;10316654;28;20120;-58
2022/12/17 17:24:15;;;;;;;35.15;22.77;;;;;;;-3.38;72.57;101407.25;10271731;28;20053;-54
2022/12/17 17:29:22;;;;;;;39.67;25.52;;;;;;;-3.47;73.66;101407.28;10331876;28;20165;-54
2022/12/17 17:34:24;;;;;;;37.63;24.98;;;;;;;-3.38;74.32;101407.25;10342602;28;20144;-54
2022/12/17 17:39:30;;;;;;;47.35;26.73;;;;;;;-3.61;73.57;101416.00;10349038;28;26097;-54
2022/12/17 17:44:32;;;;;;;46.15;26.75;;;;;;;-3.78;74.63;101408.25;10342583;28;20045;-54
2022/12/17 17:49:34;;;;;;;41.17;24.08;;;;;;;-3.82;73.97;101413.47;10316823;28;20719;-59
2022/12/17 17:54:39;;;;;;;27.70;17.95;;;;;;;-3.88;73.36;101421.31;10331423;28;20052;-54
2022/12/17 17:59:41;;;;;;;39.83;24.60;;;;;;;-4.03;73.69;101417.84;10326689;28;20058;-55
2022/12/17 18:04:42;;;;;;;37.88;23.17;;;;;;;-3.88;73.73;101427.38;10338621;28;20044;-54
2022/12/17 18:09:45;;;;;;;39.38;22.75;;;;;;;-3.97;73.44;101416.97;10303407;28;20662;-54
2022/12/17 18:14:47;;;;;;;32.50;21.95;;;;;;;-4.03;73.88;101425.66;10341760;28;20057;-55
2022/12/17 18:20:09;;;;;;;38.10;24.05;;;;;;;-4.11;72.78;101432.63;10321647;28;20049;-54
2022/12/17 18:25:12;;;;;;;36.83;21.83;;;;;;;-4.05;73.48;101442.13;10335096;28;20302;-56
2022/12/17 18:30:15;;;;;;;32.58;20.23;;;;;;;-4.12;73.27;101439.53;10322633;28;20045;-58
2022/12/17 18:35:16;;;;;;;34.78;20.02;;;;;;;-4.00;72.68;101443.84;10346554;28;20140;-56
2022/12/17 18:40:18;;;;;;;27.13;19.13;;;;;;;-3.95;71.85;101452.53;10353938;28;20060;-59
2022/12/17 18:45:20;;;;;;;31.15;20.23;;;;;;;-3.82;71.07;101452.50;10337665;28;20057;-55
2022/12/17 18:50:21;;;;;;;29.00;19.67;;;;;;;-3.93;71.71;101450.78;10332599;28;20064;-55
2022/12/17 18:55:24;;;;;;;34.65;21.30;;;;;;;-4.20;72.34;101443.00;10301051;28;20640;-55
2022/12/17 19:00:25;;;;;;;31.48;19.75;;;;;;;-4.27;72.61;101456.00;10337459;28;20049;-55
2022/12/17 19:05:29;;;;;;;31.13;19.42;;;;;;;-4.31;72.65;101454.28;10350053;28;20042;-56
2022/12/17 19:10:36;;;;;;;29.25;19.25;;;;;;;-4.28;73.09;101464.69;10346144;28;20057;-55
2022/12/17 19:15:37;;;;;;;33.53;20.17;;;;;;;-4.19;72.40;101462.94;10306872;28;20057;-55
2022/12/17 19:20:39;;;;;;;28.00;17.60;;;;;;;-4.32;71.82;101462.09;10346741;28;20063;-56
2022/12/17 19:25:40;;;;;;;26.95;17.73;;;;;;;-4.30;71.90;101466.41;10346822;28;20069;-56
2022/12/17 19:30:42;;;;;;;27.83;19.63;;;;;;;-4.18;71.22;101467.28;10335825;28;20057;-56
2022/12/17 19:35:44;;;;;;;28.05;19.00;;;;;;;-4.26;71.05;101462.09;10344071;28;20060;-56
2022/12/17 19:40:50;;;;;;;26.73;18.23;;;;;;;-4.48;71.50;101476.81;10329686;28;20049;-56
2022/12/17 19:46:00;;;;;;;27.65;16.48;;;;;;;-4.66;72.11;101472.44;10339566;28;20100;-55
2022/12/17 19:51:02;;;;;;;27.90;18.58;;;;;;;-4.56;71.66;101475.91;10336079;28;20046;-57
2022/12/17 19:56:31;;;;;;;24.88;17.70;;;;;;;-4.79;72.16;101463.75;10338683;28;21478;-58
2022/12/17 20:01:39;;;;;;;28.80;17.33;;;;;;;-4.66;72.19;101462.91;10341505;28;20183;-56
2022/12/17 20:06:42;;;;;;;26.63;17.65;;;;;;;-4.62;71.39;101469.84;10336664;28;20037;-55
2022/12/17 20:11:44;;;;;;;27.30;16.40;;;;;;;-4.68;72.47;101477.63;10350309;28;20508;-54
2022/12/17 20:16:56;;;;;;;26.30;16.27;;;;;;;-4.83;71.69;101469.81;10346975;28;20052;-56
2022/12/17 20:22:00;;;;;;;28.45;18.33;;;;;;;-4.92;72.24;101474.97;10323663;28;20136;-57
2022/12/17 20:27:02;;;;;;;34.25;19.90;;;;;;;-5.00;73.35;101483.63;10348204;28;20061;-57
2022/12/17 20:32:04;;;;;;;34.15;20.13;;;;;;;-4.83;73.43;101495.78;10335998;28;20187;-55
2022/12/17 20:37:05;;;;;;;34.63;20.10;;;;;;;-4.59;73.03;101501.91;10344848;28;20169;-55
2022/12/17 20:42:08;;;;;;;32.42;19.67;;;;;;;-4.71;73.01;101508.81;10345517;28;20163;-56
2022/12/17 20:47:09;;;;;;;31.10;19.52;;;;;;;-4.83;74.13;101512.25;10346839;28;20441;-55
2022/12/17 20:52:10;;;;;;;37.22;20.75;;;;;;;-4.75;73.64;101511.41;10344564;28;20502;-55
2022/12/17 20:57:12;;;;;;;35.20;21.58;;;;;;;-4.90;74.21;101517.41;10337318;28;20057;-55
2022/12/17 21:02:17;;;;;;;31.80;17.77;;;;;;;-4.86;74.58;101514.81;10348429;28;20073;-55
2022/12/17 21:07:18;;;;;;;32.60;20.85;;;;;;;-4.76;73.97;101502.72;10347922;28;20060;-55
2022/12/17 21:12:20;;;;;;;35.83;22.23;;;;;;;-4.54;73.51;101514.03;10346315;28;20587;-56
2022/12/17 21:17:21;;;;;;;34.35;20.98;;;;;;;-4.65;72.75;101506.22;10328923;28;20077;-57
2022/12/17 21:22:23;;;;;;;33.95;22.33;;;;;;;-4.70;72.65;101502.75;10349128;28;20099;-55
2022/12/17 21:27:25;;;;;;;34.28;20.65;;;;;;;-4.87;72.88;101514.81;10350817;28;20563;-55
2022/12/17 21:32:28;;;;;;;34.80;21.38;;;;;;;-4.99;73.24;101521.69;10307944;28;20104;-58
2022/12/17 21:37:34;;;;;;;30.92;19.40;;;;;;;-4.94;73.17;101523.44;10346015;28;20071;-56
2022/12/17 21:48:14;;;;;;;33.15;19.83;;;;;;;-5.12;74.12;101529.44;10239076;28;20809;-56
2022/12/17 21:53:15;;;;;;;34.70;19.08;;;;;;;-5.06;73.33;101540.72;10332161;28;20046;-57
2022/12/17 21:58:18;;;;;;;33.05;20.77;;;;;;;-5.14;73.64;101547.59;10333428;28;20046;-61
2022/12/17 22:03:19;;;;;;;30.42;20.20;;;;;;;-5.20;74.28;101564.00;10331011;28;20079;-54
2022/12/17 22:08:21;;;;;;;34.45;20.90;;;;;;;-5.16;73.63;101555.38;10360453;28;20585;-55
2022/12/17 22:18:43;;;;;;;35.35;22.77;;;;;;;-5.21;73.08;101546.72;10354631;28;20056;-55
2022/12/17 22:23:48;;;;;;;32.20;20.42;;;;;;;-5.33;73.32;101539.72;10342641;28;20050;-54
2022/12/17 22:28:49;;;;;;;;;;;;;;;-5.11;72.87;101550.22;10349395;28;20061;-55
2022/12/17 22:33:51;;;;;;;30.85;19.98;;;;;;;-5.04;72.02;101540.75;10341839;28;19928;-55
2022/12/17 22:39:14;;;;;;;31.10;19.35;;;;;;;-5.17;72.36;101535.47;10330627;28;20050;-57
2022/12/17 22:44:35;;;;;;;30.17;18.17;;;;;;;-5.34;72.87;101548.38;10364234;28;20180;-56
2022/12/17 22:49:54;;;;;;;33.08;20.60;;;;;;;-5.45;73.77;101547.44;10350008;28;20050;-57
2022/12/17 22:54:56;;;;;;;28.35;18.67;;;;;;;-5.55;74.11;101537.88;10338892;28;20896;-59
2022/12/17 22:59:59;;;;;;;25.52;16.63;;;;;;;-5.53;73.69;101538.72;10342299;28;20618;-57
2022/12/17 23:05:01;;;;;;;26.50;17.42;;;;;;;-5.60;73.68;101539.53;10305218;28;20123;-56
2022/12/17 23:10:03;;;;;;;25.88;17.75;;;;;;;-5.63;74.66;101536.94;10344580;28;20064;-58
2022/12/17 23:15:05;;;;;;;26.55;16.35;;;;;;;-5.52;74.22;101545.66;10346472;28;20050;-59
2022/12/17 23:20:07;;;;;;;26.35;17.55;;;;;;;-5.66;73.84;101536.91;10340084;28;20061;-62
2022/12/17 23:25:09;;;;;;;32.10;19.00;;;;;;;-5.74;73.82;101535.13;10345550;28;20558;-68
2022/12/17 23:30:12;;;;;;;32.00;19.15;;;;;;;-5.70;73.26;101536.88;10306733;28;20069;-56
2022/12/17 23:35:14;;;;;;;29.27;19.20;;;;;;;-5.79;73.42;101533.38;10304709;28;21462;-57
2022/12/17 23:40:15;;;;;;;28.98;17.92;;;;;;;-5.86;73.39;101535.03;10334975;28;20554;-60
2022/12/17 23:45:17;;;;;;;32.78;19.95;;;;;;;-5.71;72.88;101545.50;10334027;28;20208;-58
2022/12/17 23:50:19;;;;;;;24.70;16.08;;;;;;;-5.78;72.58;101543.75;10313906;28;20041;-57
2022/12/17 23:55:20;;;;;;;25.95;16.67;;;;;;;-5.84;72.37;101554.06;10336164;28;20064;-57
